createdAt,value
2019-03-09T00:01:15.131Z,93977.16
2019-03-09T00:03:43.552Z,93975.08
2019-03-09T00:06:13.561Z,93969.25
2019-03-09T00:08:42.209Z,93969.55
2019-03-09T00:11:10.614Z,93971.18
2019-03-09T00:13:40.996Z,93970.17
2019-03-09T00:16:09.511Z,93974.07
2019-03-09T00:18:38.044Z,93958.14
2019-03-09T00:21:06.790Z,93958.50
2019-03-09T00:23:42.794Z,93960.11
2019-03-09T00:26:15.551Z,93956.20
2019-03-09T00:28:51.387Z,93958.80
2019-03-09T00:31:21.672Z,93958.47
2019-03-09T00:33:50.108Z,93962.22
2019-03-09T00:36:18.626Z,93956.72
2019-03-09T00:38:47.059Z,93956.69
2019-03-09T00:41:15.483Z,93953.60
2019-03-09T00:43:44.375Z,93954.57
2019-03-09T00:46:13.134Z,93957.20
2019-03-09T00:48:41.558Z,93969.55
2019-03-09T00:51:10.022Z,93965.01
2019-03-09T00:53:38.483Z,93954.91
2019-03-09T00:56:06.937Z,93959.14
2019-03-09T00:58:35.362Z,93961.11
2019-03-09T01:01:03.920Z,93954.91
2019-03-09T01:03:32.526Z,93960.14
2019-03-09T01:06:01.108Z,93950.06
2019-03-09T01:08:29.593Z,93948.44
2019-03-09T01:10:58.117Z,93938.52
2019-03-09T01:13:26.627Z,93934.09
2019-03-09T01:15:55.062Z,93926.32
2019-03-09T01:18:23.508Z,93920.96
2019-03-09T01:20:52.026Z,93931.22
2019-03-09T01:23:20.484Z,93934.61
2019-03-09T01:25:48.931Z,93933.30
2019-03-09T01:28:17.433Z,93927.28
2019-03-09T01:30:45.924Z,93922.41
2019-03-09T01:33:14.411Z,93920.12
2019-03-09T01:35:42.814Z,93916.89
2019-03-09T01:38:11.228Z,93907.75
2019-03-09T01:40:39.794Z,93904.18
2019-03-09T01:43:08.226Z,93908.41
2019-03-09T01:45:36.829Z,93893.63
2019-03-09T01:48:05.455Z,93897.86
2019-03-09T01:50:34.012Z,93898.02
2019-03-09T01:53:02.508Z,93899.61
2019-03-09T01:55:31.004Z,93890.20
2019-03-09T01:57:59.473Z,93885.97
2019-03-09T02:00:27.979Z,93886.13
2019-03-09T02:02:56.460Z,93881.44
2019-03-09T02:05:25.055Z,93877.86
2019-03-09T02:07:53.595Z,93887.14
2019-03-09T02:10:22.137Z,93890.55
2019-03-09T02:12:50.708Z,93887.95
2019-03-09T02:15:19.304Z,93884.36
2019-03-09T02:17:47.826Z,93879.00
2019-03-09T02:20:17.193Z,93889.91
2019-03-09T02:22:45.758Z,93875.27
2019-03-09T02:25:15.205Z,93874.13
2019-03-09T02:27:43.649Z,93872.33
2019-03-09T02:30:18.888Z,93870.06
2019-03-09T02:32:47.417Z,93879.34
2019-03-09T02:35:19.220Z,93879.84
2019-03-09T02:37:47.709Z,93871.69
2019-03-09T02:40:22.935Z,93870.86
2019-03-09T02:42:50.767Z,93873.97
2019-03-09T02:45:24.510Z,93884.22
2019-03-09T02:47:53.077Z,93868.78
2019-03-09T02:50:21.630Z,93883.09
2019-03-09T02:52:50.158Z,93887.97
2019-03-09T02:55:18.559Z,93875.28
2019-03-09T02:57:47.116Z,93868.75
2019-03-09T03:00:19.588Z,93867.76
2019-03-09T03:02:58.510Z,93860.31
2019-03-09T03:05:26.965Z,93859.30
2019-03-09T03:07:55.430Z,93850.01
2019-03-09T03:10:23.905Z,93847.58
2019-03-09T03:12:52.356Z,93853.45
2019-03-09T03:15:37.828Z,93832.59
2019-03-09T03:18:06.315Z,93834.22
2019-03-09T03:20:34.829Z,93839.11
2019-03-09T03:23:03.479Z,93834.88
2019-03-09T03:25:32.012Z,93829.69
2019-03-09T03:28:00.441Z,93836.88
2019-03-09T03:30:28.891Z,93833.91
2019-03-09T03:32:58.593Z,93833.27
2019-03-09T03:35:27.096Z,93814.98
2019-03-09T03:37:55.617Z,93820.54
2019-03-09T03:40:24.109Z,93825.44
2019-03-09T03:42:52.618Z,93817.61
2019-03-09T03:45:21.468Z,93816.96
2019-03-09T03:47:49.897Z,93817.61
2019-03-09T03:50:18.314Z,93815.33
2019-03-09T03:52:47.002Z,93836.83
2019-03-09T03:55:15.480Z,93853.08
2019-03-09T03:57:43.885Z,93824.12
2019-03-09T04:00:14.425Z,93819.28
2019-03-09T04:02:42.972Z,93835.23
2019-03-09T04:05:11.522Z,93850.20
2019-03-09T04:07:41.108Z,93845.00
2019-03-09T04:10:11.566Z,93832.29
2019-03-09T04:12:40.153Z,93840.61
2019-03-09T04:15:09.077Z,93839.80
2019-03-09T04:17:37.668Z,93837.84
2019-03-09T04:20:07.721Z,93831.28
2019-03-09T04:22:36.274Z,93804.60
2019-03-09T04:25:06.075Z,93811.76
2019-03-09T04:27:34.797Z,93824.98
2019-03-09T04:30:04.477Z,93821.52
2019-03-09T04:32:33.488Z,93820.89
2019-03-09T04:35:02.094Z,93814.07
2019-03-09T04:37:30.602Z,93825.78
2019-03-09T04:39:59.056Z,93822.66
2019-03-09T04:42:27.507Z,93830.50
2019-03-09T04:44:55.923Z,93828.05
2019-03-09T04:47:24.387Z,93828.70
2019-03-09T04:49:53.127Z,93823.50
2019-03-09T04:52:21.576Z,93817.83
2019-03-09T04:54:49.966Z,93821.72
2019-03-09T04:57:18.408Z,93831.31
2019-03-09T04:59:46.882Z,93815.38
2019-03-09T05:02:15.585Z,93815.70
2019-03-09T05:04:45.826Z,93825.14
2019-03-09T05:07:17.390Z,93831.16
2019-03-09T05:09:51.544Z,93828.72
2019-03-09T05:12:19.977Z,93835.40
2019-03-09T05:14:48.420Z,93838.34
2019-03-09T05:17:16.908Z,93844.38
2019-03-09T05:19:45.320Z,93848.41
2019-03-09T05:22:13.760Z,93849.56
2019-03-09T05:24:42.178Z,93865.50
2019-03-09T05:27:10.812Z,93867.15
2019-03-09T05:29:39.240Z,93870.07
2019-03-09T05:32:07.656Z,93864.22
2019-03-09T05:34:36.095Z,93877.55
2019-03-09T05:37:04.543Z,93886.69
2019-03-09T05:39:32.955Z,93879.19
2019-03-09T05:42:01.391Z,93876.89
2019-03-09T05:44:29.881Z,93876.72
2019-03-09T05:46:58.468Z,93878.55
2019-03-09T05:49:26.990Z,93874.95
2019-03-09T05:52:21.415Z,93882.94
2019-03-09T05:54:50.054Z,93869.09
2019-03-09T05:57:18.477Z,93882.77
2019-03-09T05:59:47.059Z,93873.66
2019-03-09T06:02:15.605Z,93886.02
2019-03-09T06:04:44.023Z,93895.77
2019-03-09T06:07:12.465Z,93903.56
2019-03-09T06:09:40.892Z,93893.81
2019-03-09T06:12:09.405Z,93912.66
2019-03-09T06:14:37.863Z,93917.88
2019-03-09T06:17:06.587Z,93921.14
2019-03-09T06:19:35.005Z,93922.74
2019-03-09T06:22:03.431Z,93929.59
2019-03-09T06:24:31.931Z,93938.38
2019-03-09T06:27:00.364Z,93930.39
2019-03-09T06:29:28.828Z,93931.85
2019-03-09T06:32:28.978Z,93945.16
2019-03-09T06:34:57.439Z,93941.90
2019-03-09T06:37:25.861Z,93942.92
2019-03-09T06:39:56.839Z,93945.53
2019-03-09T06:42:37.743Z,93941.44
2019-03-09T06:45:09.124Z,93950.39
2019-03-09T06:47:37.609Z,93949.41
2019-03-09T06:50:12.096Z,93954.78
2019-03-09T06:52:40.512Z,93964.37
2019-03-09T06:55:11.519Z,93967.31
2019-03-09T06:57:40.017Z,93981.28
2019-03-09T07:00:30.836Z,93978.38
2019-03-09T07:02:59.325Z,93988.79
2019-03-09T07:05:27.739Z,93991.99
2019-03-09T07:07:56.260Z,94006.34
2019-03-09T07:10:24.814Z,93998.50
2019-03-09T07:12:53.246Z,94006.64
2019-03-09T07:15:27.128Z,94009.61
2019-03-09T07:17:57.899Z,94006.34
2019-03-09T07:20:26.381Z,94007.00
2019-03-09T07:22:54.974Z,94009.27
2019-03-09T07:25:23.485Z,94019.53
2019-03-09T07:28:00.995Z,94031.58
2019-03-09T07:30:29.562Z,94039.87
2019-03-09T07:32:58.230Z,94051.59
2019-03-09T07:35:26.829Z,94057.08
2019-03-09T07:37:55.323Z,94054.52
2019-03-09T07:40:23.854Z,94059.73
2019-03-09T07:42:52.425Z,94052.11
2019-03-09T07:45:21.090Z,94057.83
2019-03-09T07:47:49.532Z,94062.37
2019-03-09T07:50:18.480Z,94051.98
2019-03-09T07:52:47.028Z,94061.82
2019-03-09T07:55:19.968Z,94059.39
2019-03-09T07:57:48.530Z,94070.77
2019-03-09T08:00:23.022Z,94070.29
2019-03-09T08:02:51.528Z,94071.62
2019-03-09T08:05:20.008Z,94074.53
2019-03-09T08:07:48.602Z,94068.34
2019-03-09T08:10:30.951Z,94064.44
2019-03-09T08:12:59.415Z,94062.16
2019-03-09T08:15:27.987Z,94057.63
2019-03-09T08:17:56.425Z,94053.70
2019-03-09T08:20:25.006Z,94058.70
2019-03-09T08:22:53.554Z,94054.31
2019-03-09T08:25:24.609Z,94062.77
2019-03-09T08:27:53.107Z,94073.54
2019-03-09T08:30:28.820Z,94071.89
2019-03-09T08:32:57.340Z,94064.05
2019-03-09T08:35:25.823Z,94070.87
2019-03-09T08:37:54.438Z,94074.50
2019-03-09T08:40:23.252Z,94074.50
2019-03-09T08:42:51.724Z,94071.55
2019-03-09T08:45:21.403Z,94055.86
2019-03-09T08:47:52.348Z,94066.28
2019-03-09T08:50:23.583Z,94064.06
2019-03-09T08:52:52.329Z,94053.85
2019-03-09T08:55:20.999Z,94047.61
2019-03-09T08:57:49.577Z,94044.05
2019-03-09T09:00:24.244Z,94042.66
2019-03-09T09:02:52.760Z,94042.66
2019-03-09T09:05:21.259Z,94030.91
2019-03-09T09:07:49.710Z,94036.05
2019-03-09T09:10:18.211Z,94028.30
2019-03-09T09:12:46.689Z,94036.93
2019-03-09T09:15:16.471Z,94030.22
2019-03-09T09:17:45.027Z,94023.30
2019-03-09T09:20:16.381Z,94028.91
2019-03-09T09:22:44.969Z,94016.41
2019-03-09T09:25:14.644Z,94030.00
2019-03-09T09:27:43.149Z,94027.73
2019-03-09T09:30:20.478Z,94015.13
2019-03-09T09:32:48.900Z,94021.71
2019-03-09T09:35:18.086Z,94024.62
2019-03-09T09:37:46.743Z,94025.32
2019-03-09T09:40:20.099Z,94019.93
2019-03-09T09:42:48.625Z,94014.98
2019-03-09T09:45:17.221Z,94005.97
2019-03-09T09:47:45.864Z,94004.84
2019-03-09T09:50:16.832Z,93991.34
2019-03-09T09:52:45.431Z,94000.95
2019-03-09T09:55:18.555Z,94002.47
2019-03-09T09:57:47.133Z,94003.68
2019-03-09T10:00:24.306Z,93999.28
2019-03-09T10:02:52.806Z,94004.27
2019-03-09T10:05:21.925Z,94000.80
2019-03-09T10:07:50.520Z,93993.38
2019-03-09T10:10:25.038Z,94010.73
2019-03-09T10:12:55.749Z,94011.00
2019-03-09T10:15:28.792Z,94020.69
2019-03-09T10:17:57.344Z,94016.64
2019-03-09T10:20:25.890Z,94023.86
2019-03-09T10:23:03.446Z,94021.50
2019-03-09T10:25:24.710Z,94027.77
2019-03-09T10:27:53.131Z,94026.84
2019-03-09T10:30:23.982Z,94034.80
2019-03-09T10:32:52.737Z,94038.85
2019-03-09T10:35:21.327Z,94031.91
2019-03-09T10:37:50.321Z,94031.72
2019-03-09T10:40:19.392Z,94022.53
2019-03-09T10:42:47.896Z,94034.70
2019-03-09T10:45:20.193Z,94022.89
2019-03-09T10:47:48.949Z,94020.13
2019-03-09T10:50:18.155Z,94012.63
2019-03-09T10:52:46.639Z,94004.82
2019-03-09T10:55:18.130Z,94015.74
2019-03-09T10:57:46.774Z,94012.53
2019-03-09T11:00:20.637Z,94019.23
2019-03-09T11:02:49.179Z,94012.36
2019-03-09T11:05:17.594Z,94013.13
2019-03-09T11:07:46.194Z,93999.84
2019-03-09T11:10:14.975Z,93996.52
2019-03-09T11:12:43.638Z,93987.67
2019-03-09T11:15:12.250Z,93987.94
2019-03-09T11:17:40.811Z,93993.75
2019-03-09T11:20:14.481Z,94011.34
2019-03-09T11:22:43.042Z,94000.27
2019-03-09T11:25:12.089Z,94002.91
2019-03-09T11:27:40.506Z,94004.30
2019-03-09T11:30:17.615Z,93994.19
2019-03-09T11:32:46.201Z,93989.30
2019-03-09T11:35:14.859Z,93984.08
2019-03-09T11:37:43.594Z,93983.98
2019-03-09T11:40:12.148Z,93987.64
2019-03-09T11:42:40.643Z,93981.80
2019-03-09T11:45:14.742Z,93970.97
2019-03-09T11:47:43.302Z,93957.55
2019-03-09T11:50:13.921Z,93948.52
2019-03-09T11:52:42.429Z,93941.84
2019-03-09T11:55:12.915Z,93944.81
2019-03-09T11:57:41.437Z,93932.09
2019-03-09T12:00:12.938Z,93943.55
2019-03-09T12:02:41.467Z,93940.49
2019-03-09T12:05:10.338Z,93935.53
2019-03-09T12:07:38.902Z,93930.07
2019-03-09T12:10:09.851Z,93929.29
2019-03-09T12:12:38.421Z,93941.38
2019-03-09T12:15:12.584Z,93937.51
2019-03-09T12:17:41.127Z,93934.08
2019-03-09T12:20:11.079Z,93921.08
2019-03-09T12:22:39.703Z,93922.36
2019-03-09T12:25:11.207Z,93915.33
2019-03-09T12:27:39.736Z,93922.09
2019-03-09T12:30:11.232Z,93934.40
2019-03-09T12:32:40.728Z,93934.08
2019-03-09T12:35:09.745Z,93939.68
2019-03-09T12:37:38.292Z,93937.50
2019-03-09T12:40:12.199Z,93952.54
2019-03-09T12:42:40.804Z,93958.88
2019-03-09T12:45:10.894Z,93949.97
2019-03-09T12:47:39.416Z,93949.25
2019-03-09T12:50:13.621Z,93969.31
2019-03-09T12:52:42.145Z,93967.45
2019-03-09T12:55:10.723Z,93963.66
2019-03-09T12:57:39.250Z,93967.89
2019-03-09T13:00:13.523Z,93971.23
2019-03-09T13:02:41.946Z,93972.55
2019-03-09T13:05:10.487Z,93960.88
2019-03-09T13:07:39.075Z,93964.23
2019-03-09T13:10:08.950Z,93974.32
2019-03-09T13:12:37.562Z,93973.98
2019-03-09T13:15:07.784Z,93973.48
2019-03-09T13:17:36.382Z,93973.59
2019-03-09T13:20:06.797Z,93968.55
2019-03-09T13:22:35.307Z,93961.59
2019-03-09T13:25:04.821Z,93951.09
2019-03-09T13:27:33.360Z,93942.02
2019-03-09T13:30:01.937Z,93944.73
2019-03-09T13:32:33.481Z,93949.97
2019-03-09T13:35:01.558Z,93944.03
2019-03-09T13:37:30.036Z,93931.91
2019-03-09T13:39:58.523Z,93935.13
2019-03-09T13:42:27.024Z,93921.53
2019-03-09T13:44:55.481Z,93943.45
2019-03-09T13:47:24.008Z,93950.29
2019-03-09T13:49:52.632Z,93932.52
2019-03-09T13:52:21.083Z,93918.09
2019-03-09T13:54:49.594Z,93921.86
2019-03-09T13:57:18.087Z,93914.52
2019-03-09T13:59:46.515Z,93907.55
2019-03-09T14:02:14.986Z,93911.16
2019-03-09T14:04:43.448Z,93917.64
2019-03-09T14:07:11.866Z,93907.55
2019-03-09T14:09:40.296Z,93907.41
2019-03-09T14:12:08.812Z,93915.70
2019-03-09T14:14:37.234Z,93902.88
2019-03-09T14:17:05.694Z,93913.88
2019-03-09T14:19:34.125Z,93901.42
2019-03-09T14:22:02.654Z,93902.67
2019-03-09T14:24:31.120Z,93899.97
2019-03-09T14:26:59.653Z,93905.84
2019-03-09T14:29:28.144Z,93904.34
2019-03-09T14:31:56.686Z,93900.53
2019-03-09T14:34:25.227Z,93905.26
2019-03-09T14:36:53.670Z,93925.79
2019-03-09T14:39:22.165Z,93916.55
2019-03-09T14:41:50.897Z,93909.34
2019-03-09T14:44:19.319Z,93907.53
2019-03-09T14:46:47.747Z,93893.67
2019-03-09T14:49:16.285Z,93910.35
2019-03-09T14:51:44.834Z,93905.23
2019-03-09T14:54:13.262Z,93897.38
2019-03-09T14:56:41.741Z,93899.73
2019-03-09T14:59:10.187Z,93883.45
2019-03-09T15:01:38.655Z,93899.03
2019-03-09T15:04:07.147Z,93861.48
2019-03-09T15:06:35.660Z,93886.81
2019-03-09T15:09:05.015Z,93891.70
2019-03-09T15:11:33.536Z,93899.71
2019-03-09T15:14:02.408Z,93903.22
2019-03-09T15:16:30.900Z,93901.17
2019-03-09T15:18:59.339Z,93892.36
2019-03-09T15:21:28.098Z,93894.75
2019-03-09T15:23:56.681Z,93899.88
2019-03-09T15:26:25.180Z,93906.20
2019-03-09T15:28:53.773Z,93905.83
2019-03-09T15:31:22.256Z,93901.95
2019-03-09T15:33:50.931Z,93909.75
2019-03-09T15:36:19.402Z,93908.86
2019-03-09T15:38:47.843Z,93917.00
2019-03-09T15:41:16.388Z,93929.45
2019-03-09T15:43:44.887Z,93938.01
2019-03-09T15:46:13.299Z,93935.52
2019-03-09T15:48:41.864Z,93945.48
2019-03-09T15:51:10.271Z,93938.22
2019-03-09T15:53:38.707Z,93950.64
2019-03-09T15:56:07.239Z,93950.92
2019-03-09T15:58:37.206Z,93950.00
2019-03-09T16:01:05.902Z,93950.33
2019-03-09T16:03:34.447Z,93942.69
2019-03-09T16:06:02.864Z,93950.26
2019-03-09T16:08:31.318Z,93953.91
2019-03-09T16:10:59.939Z,93955.72
2019-03-09T16:13:28.405Z,93966.27
2019-03-09T16:15:56.902Z,93972.05
2019-03-09T16:18:25.385Z,93970.91
2019-03-09T16:20:53.872Z,93975.58
2019-03-09T16:23:22.408Z,93948.46
2019-03-09T16:25:50.993Z,93943.83
2019-03-09T16:28:19.496Z,93920.73
2019-03-09T16:30:48.021Z,93932.83
2019-03-09T16:33:16.553Z,93946.36
2019-03-09T16:35:44.997Z,93938.78
2019-03-09T16:38:13.448Z,93932.64
2019-03-09T16:40:41.967Z,93932.42
2019-03-09T16:43:10.419Z,93939.14
2019-03-09T16:45:38.953Z,93942.19
2019-03-09T16:48:07.457Z,93945.77
2019-03-09T16:50:35.922Z,93945.65
2019-03-09T16:53:04.412Z,93939.11
2019-03-09T16:55:32.914Z,93937.50
2019-03-09T16:58:01.444Z,93946.12
2019-03-09T17:00:29.975Z,93950.14
2019-03-09T17:02:58.454Z,93940.39
2019-03-09T17:05:26.944Z,93947.59
2019-03-09T17:07:55.474Z,93964.27
2019-03-09T17:10:23.973Z,93966.27
2019-03-09T17:12:52.552Z,93977.07
2019-03-09T17:15:25.501Z,93994.22
2019-03-09T17:17:54.087Z,93999.53
2019-03-09T17:20:22.611Z,93996.34
2019-03-09T17:22:51.089Z,94014.09
2019-03-09T17:25:19.554Z,94011.77
2019-03-09T17:27:47.981Z,94012.83
2019-03-09T17:30:18.623Z,94002.02
2019-03-09T17:32:47.161Z,94009.95
2019-03-09T17:35:15.753Z,94022.04
2019-03-09T17:37:44.265Z,94019.42
2019-03-09T17:40:14.798Z,94018.61
2019-03-09T17:42:43.292Z,94033.80
2019-03-09T17:45:14.367Z,94025.80
2019-03-09T17:47:42.923Z,94026.70
2019-03-09T17:50:13.211Z,94023.39
2019-03-09T17:52:41.635Z,94022.45
2019-03-09T17:55:11.557Z,94027.02
2019-03-09T17:57:40.059Z,94022.04
2019-03-09T18:00:26.784Z,94035.77
2019-03-09T18:02:55.398Z,94025.34
2019-03-09T18:05:25.610Z,94035.84
2019-03-09T18:07:54.185Z,94036.50
2019-03-09T18:10:31.610Z,94046.59
2019-03-09T18:13:00.031Z,94045.27
2019-03-09T18:15:28.653Z,94041.07
2019-03-09T18:17:57.107Z,94034.21
2019-03-09T18:20:25.608Z,94046.98
2019-03-09T18:22:54.203Z,94035.19
2019-03-09T18:25:22.874Z,94047.97
2019-03-09T18:27:51.321Z,94051.23
2019-03-09T18:30:19.910Z,94044.34
2019-03-09T18:32:49.390Z,94051.59
2019-03-09T18:35:17.843Z,94035.27
2019-03-09T18:37:46.276Z,94037.98
2019-03-09T18:40:16.250Z,94037.33
2019-03-09T18:42:45.018Z,94039.25
2019-03-09T18:45:22.448Z,94039.34
2019-03-09T18:47:51.291Z,94040.66
2019-03-09T18:50:19.854Z,94046.82
2019-03-09T18:52:48.431Z,94052.05
2019-03-09T18:55:16.952Z,94052.43
2019-03-09T18:57:45.522Z,94050.30
2019-03-09T19:00:21.290Z,94052.76
2019-03-09T19:02:50.114Z,94046.06
2019-03-09T19:05:18.664Z,94059.80
2019-03-09T19:07:47.281Z,94069.11
2019-03-09T19:10:17.420Z,94064.78
2019-03-09T19:12:45.928Z,94057.92
2019-03-09T19:15:16.354Z,94065.76
2019-03-09T19:17:44.929Z,94074.33
2019-03-09T19:20:17.553Z,94067.45
2019-03-09T19:22:46.092Z,94075.91
2019-03-09T19:25:15.679Z,94061.89
2019-03-09T19:27:44.176Z,94075.23
2019-03-09T19:30:20.787Z,94076.23
2019-03-09T19:32:59.632Z,94079.88
2019-03-09T19:35:19.732Z,94083.09
2019-03-09T19:37:48.254Z,94079.20
2019-03-09T19:40:20.836Z,94085.56
2019-03-09T19:42:49.409Z,94086.16
2019-03-09T19:45:21.897Z,94083.46
2019-03-09T19:47:50.505Z,94108.85
2019-03-09T19:50:24.300Z,94107.27
2019-03-09T19:52:52.875Z,94106.94
2019-03-09T19:55:21.475Z,94112.79
2019-03-09T19:57:50.257Z,94117.97
2019-03-09T20:00:20.145Z,94109.75
2019-03-09T20:02:48.631Z,94116.28
2019-03-09T20:05:17.585Z,94117.02
2019-03-09T20:07:46.147Z,94127.41
2019-03-09T20:10:19.250Z,94136.25
2019-03-09T20:12:47.776Z,94127.09
2019-03-09T20:15:17.283Z,94137.86
2019-03-09T20:17:46.061Z,94140.19
2019-03-09T20:20:18.241Z,94140.52
2019-03-09T20:22:46.815Z,94139.19
2019-03-09T20:25:15.700Z,94140.83
2019-03-09T20:27:44.257Z,94141.50
2019-03-09T20:30:20.552Z,94141.50
2019-03-09T20:32:49.165Z,94147.72
2019-03-09T20:35:17.669Z,94144.77
2019-03-09T20:37:46.177Z,94151.12
2019-03-09T20:40:38.277Z,94156.14
2019-03-09T20:43:06.776Z,94168.59
2019-03-09T20:45:35.248Z,94148.20
2019-03-09T20:48:03.706Z,94147.33
2019-03-09T20:50:32.368Z,94147.00
2019-03-09T20:53:02.095Z,94145.70
2019-03-09T20:55:30.450Z,94140.29
2019-03-09T20:57:58.946Z,94138.38
2019-03-09T21:00:27.545Z,94135.93
2019-03-09T21:02:56.077Z,94139.84
2019-03-09T21:05:24.528Z,94139.49
2019-03-09T21:07:52.958Z,94140.61
2019-03-09T21:10:21.838Z,94144.84
2019-03-09T21:13:08.068Z,94147.88
2019-03-09T21:15:36.569Z,94147.20
2019-03-09T21:18:05.056Z,94134.59
2019-03-09T21:20:33.649Z,94135.44
2019-03-09T21:23:02.231Z,94129.06
2019-03-09T21:25:30.710Z,94132.53
2019-03-09T21:27:59.166Z,94120.05
2019-03-09T21:30:27.868Z,94113.84
2019-03-09T21:32:56.441Z,94121.98
2019-03-09T21:35:25.859Z,94118.42
2019-03-09T21:37:54.476Z,94124.88
2019-03-09T21:40:22.938Z,94118.75
2019-03-09T21:42:51.437Z,94129.49
2019-03-09T21:45:20.095Z,94138.02
2019-03-09T21:47:48.625Z,94135.73
2019-03-09T21:50:18.013Z,94134.75
2019-03-09T21:52:46.535Z,94131.23
2019-03-09T21:55:16.127Z,94131.81
2019-03-09T21:57:47.836Z,94125.61
2019-03-09T22:00:21.054Z,94131.13
2019-03-09T22:02:50.500Z,94137.05
2019-03-09T22:05:19.302Z,94136.55
2019-03-09T22:07:47.743Z,94140.96
2019-03-09T22:10:16.288Z,94127.20
2019-03-09T22:12:44.801Z,94132.80
2019-03-09T22:15:14.845Z,94122.34
2019-03-09T22:17:43.361Z,94118.64
2019-03-09T22:20:16.335Z,94118.67
2019-03-09T22:22:45.045Z,94110.79
2019-03-09T22:25:14.633Z,94115.70
2019-03-09T22:27:43.176Z,94108.02
2019-03-09T22:30:18.860Z,94114.13
2019-03-09T22:32:47.418Z,94108.58
2019-03-09T22:35:16.056Z,94105.60
2019-03-09T22:37:44.466Z,94104.33
2019-03-09T22:40:16.992Z,94098.05
2019-03-09T22:42:45.615Z,94104.98
2019-03-09T22:45:15.234Z,94097.52
2019-03-09T22:47:43.836Z,94101.64
2019-03-09T22:50:17.509Z,94096.08
2019-03-09T22:52:46.102Z,94098.00
2019-03-09T22:55:14.688Z,94086.19
2019-03-09T22:57:44.401Z,94069.80
2019-03-09T23:00:16.199Z,94072.17
2019-03-09T23:02:45.099Z,94079.29
2019-03-09T23:05:13.912Z,94068.25
2019-03-09T23:07:42.574Z,94071.15
2019-03-09T23:10:13.688Z,94065.06
2019-03-09T23:12:42.131Z,94071.05
2019-03-09T23:15:13.003Z,94071.61
2019-03-09T23:17:41.579Z,94075.90
2019-03-09T23:20:12.018Z,94076.97
2019-03-09T23:22:40.574Z,94088.36
2019-03-09T23:25:09.845Z,94084.40
2019-03-09T23:27:38.377Z,94093.25
2019-03-09T23:30:10.312Z,94092.98
2019-03-09T23:32:38.833Z,94084.32
2019-03-09T23:35:07.741Z,94094.98
2019-03-09T23:37:36.393Z,94092.48
2019-03-09T23:40:08.398Z,94091.06
2019-03-09T23:42:36.898Z,94095.84
2019-03-09T23:45:08.406Z,94085.70
2019-03-09T23:47:37.043Z,94086.03
2019-03-09T23:50:08.783Z,94080.41
2019-03-09T23:52:37.205Z,94076.84
2019-03-09T23:55:06.806Z,94075.38
2019-03-09T23:57:37.111Z,94066.09
